createdAt,value
2022-11-24T00:00:26.319Z,3.47
2022-11-24T00:02:53.934Z,4.17
2022-11-24T00:05:23.010Z,3.83
2022-11-24T00:07:50.620Z,3.88
2022-11-24T00:10:18.272Z,4.32
2022-11-24T00:12:45.851Z,2.60
2022-11-24T00:15:13.398Z,4.05
2022-11-24T00:17:41.194Z,3.60
2022-11-24T00:20:09.125Z,3.53
2022-11-24T00:22:36.659Z,2.47
2022-11-24T00:25:04.400Z,4.20
2022-11-24T00:27:31.915Z,3.00
2022-11-24T00:29:59.708Z,3.63
2022-11-24T00:32:30.195Z,2.90
2022-11-24T00:34:57.768Z,3.38
2022-11-24T00:37:25.300Z,3.87
2022-11-24T00:39:52.879Z,3.22
2022-11-24T00:42:20.405Z,3.25
2022-11-24T00:44:48.005Z,3.47
2022-11-24T00:47:15.608Z,3.17
2022-11-24T00:49:43.293Z,2.75
2022-11-24T00:52:10.884Z,2.90
2022-11-24T00:54:38.399Z,3.00
2022-11-24T00:57:05.984Z,2.95
2022-11-24T00:59:33.540Z,3.30
2022-11-24T01:02:01.282Z,2.67
2022-11-24T01:04:28.899Z,2.08
2022-11-24T01:06:56.464Z,2.50
2022-11-24T01:09:24.052Z,3.47
2022-11-24T01:12:04.514Z,2.25
2022-11-24T01:14:33.452Z,3.28
2022-11-24T01:17:01.227Z,2.90
2022-11-24T01:19:28.832Z,2.80
2022-11-24T01:21:56.375Z,3.53
2022-11-24T01:24:23.963Z,3.13
2022-11-24T01:26:51.543Z,2.90
2022-11-24T01:29:19.140Z,3.15
2022-11-24T01:31:46.727Z,3.13
2022-11-24T01:34:14.281Z,2.73
2022-11-24T01:36:41.871Z,3.65
2022-11-24T01:39:09.448Z,3.45
2022-11-24T01:41:37.047Z,3.77
2022-11-24T01:44:20.140Z,1.40
2022-11-24T01:46:48.211Z,2.42
2022-11-24T01:49:20.125Z,3.63
2022-11-24T01:51:47.721Z,3.07
2022-11-24T01:54:17.053Z,3.08
2022-11-24T01:56:45.087Z,1.92
2022-11-24T01:59:12.908Z,2.63
2022-11-24T02:01:40.499Z,2.45
2022-11-24T02:04:10.116Z,1.75
2022-11-24T02:06:37.618Z,1.90
2022-11-24T02:09:17.030Z,3.22
2022-11-24T02:11:45.590Z,2.65
2022-11-24T02:14:13.322Z,2.22
2022-11-24T02:16:40.857Z,1.90
2022-11-24T02:19:11.349Z,2.40
2022-11-24T02:21:38.883Z,2.35
2022-11-24T02:24:06.484Z,2.17
2022-11-24T02:26:41.404Z,1.85
2022-11-24T02:29:09.862Z,2.45
2022-11-24T02:31:37.532Z,2.50
2022-11-24T02:34:05.243Z,2.65
2022-11-24T02:36:32.869Z,2.30
2022-11-24T02:39:00.392Z,2.17
2022-11-24T02:41:28.002Z,1.80
2022-11-24T02:43:56.167Z,1.85
2022-11-24T02:46:23.771Z,1.48
2022-11-24T02:48:51.380Z,2.23
2022-11-24T02:51:19.316Z,1.83
2022-11-24T02:53:46.914Z,1.85
2022-11-24T02:56:14.427Z,3.07
2022-11-24T02:58:42.040Z,2.10
2022-11-24T03:01:09.633Z,2.08
2022-11-24T03:03:37.250Z,2.38
2022-11-24T03:06:04.817Z,2.90
2022-11-24T03:08:32.416Z,2.60
2022-11-24T03:10:59.923Z,1.42
2022-11-24T03:13:27.495Z,2.53
2022-11-24T03:15:55.024Z,2.25
2022-11-24T03:18:22.601Z,1.92
2022-11-24T03:20:50.117Z,1.80
2022-11-24T03:23:17.705Z,1.70
2022-11-24T03:25:45.220Z,2.20
2022-11-24T03:28:12.792Z,1.98
2022-11-24T03:30:40.504Z,1.60
2022-11-24T03:33:08.436Z,1.65
2022-11-24T03:35:36.065Z,1.70
2022-11-24T03:38:03.589Z,1.57
2022-11-24T03:40:31.249Z,1.80
2022-11-24T03:42:58.755Z,1.67
2022-11-24T03:48:14.135Z,2.40
2022-11-24T03:50:41.739Z,1.80
2022-11-24T03:53:09.273Z,1.10
2022-11-24T03:55:36.865Z,1.53
2022-11-24T03:58:06.717Z,1.98
2022-11-24T04:00:34.416Z,2.38
2022-11-24T04:03:02.071Z,2.73
2022-11-24T04:05:29.719Z,1.85
2022-11-24T04:07:57.723Z,2.25
2022-11-24T04:10:25.615Z,1.40
2022-11-24T04:12:53.191Z,1.88
2022-11-24T04:15:20.900Z,2.10
2022-11-24T04:17:50.011Z,2.35
2022-11-24T04:20:17.850Z,2.07
2022-11-24T04:22:45.427Z,1.63
2022-11-24T04:25:13.037Z,1.50
2022-11-24T04:27:40.573Z,1.43
2022-11-24T04:30:08.536Z,2.10
2022-11-24T04:32:36.360Z,2.10
2022-11-24T04:35:06.283Z,1.53
2022-11-24T04:37:34.861Z,1.70
2022-11-24T04:40:02.452Z,1.48
2022-11-24T04:42:29.942Z,1.92
2022-11-24T04:44:57.587Z,1.73
2022-11-24T04:47:25.439Z,1.95
2022-11-24T04:49:53.149Z,1.77
2022-11-24T04:52:21.092Z,1.73
2022-11-24T04:54:48.966Z,1.63
2022-11-24T04:57:20.481Z,2.30
2022-11-24T04:59:47.993Z,2.13
2022-11-24T05:02:15.527Z,1.20
2022-11-24T05:04:43.096Z,1.90
2022-11-24T05:07:18.666Z,1.98
2022-11-24T05:10:05.950Z,1.00
2022-11-24T05:12:33.720Z,1.35
2022-11-24T05:15:01.633Z,1.50
2022-11-24T05:17:29.867Z,0.87
2022-11-24T05:19:58.781Z,1.70
2022-11-24T05:22:27.075Z,1.23
2022-11-24T05:24:54.646Z,1.23
2022-11-24T05:27:22.224Z,1.42
2022-11-24T05:29:49.821Z,1.25
2022-11-24T05:32:17.356Z,1.65
2022-11-24T05:34:44.963Z,1.40
2022-11-24T05:37:12.551Z,1.45
2022-11-24T05:39:40.142Z,1.10
2022-11-24T05:42:26.717Z,1.93
2022-11-24T05:44:54.379Z,2.28
2022-11-24T05:47:21.886Z,1.60
2022-11-24T05:49:49.458Z,1.53
2022-11-24T05:52:17.315Z,1.02
2022-11-24T05:54:44.947Z,1.52
2022-11-24T05:57:13.319Z,1.77
2022-11-24T05:59:40.858Z,1.70
2022-11-24T06:02:08.501Z,1.50
2022-11-24T06:04:36.409Z,1.02
2022-11-24T06:07:04.645Z,1.30
2022-11-24T06:09:32.164Z,1.20
2022-11-24T06:11:59.778Z,0.90
2022-11-24T06:14:27.367Z,1.30
2022-11-24T06:16:54.891Z,0.98
2022-11-24T06:19:22.475Z,1.55
2022-11-24T06:21:50.059Z,1.20
2022-11-24T06:24:17.720Z,0.97
2022-11-24T06:26:45.201Z,1.08
2022-11-24T06:29:12.788Z,1.48
2022-11-24T06:31:40.401Z,1.40
2022-11-24T06:34:09.072Z,1.00
2022-11-24T06:36:36.607Z,1.40
2022-11-24T06:39:04.412Z,1.40
2022-11-24T06:41:32.109Z,1.67
2022-11-24T06:43:59.643Z,0.85
2022-11-24T06:46:27.206Z,1.13
2022-11-24T06:48:54.827Z,1.73
2022-11-24T06:51:22.446Z,1.40
2022-11-24T06:53:50.048Z,0.90
2022-11-24T06:56:19.193Z,1.10
2022-11-24T06:58:47.576Z,1.02
2022-11-24T07:01:18.833Z,1.10
2022-11-24T07:03:46.735Z,1.40
2022-11-24T07:06:14.269Z,1.27
2022-11-24T07:08:42.093Z,1.30
2022-11-24T07:11:10.345Z,0.82
2022-11-24T07:13:37.975Z,0.87
2022-11-24T07:16:12.669Z,1.30
2022-11-24T07:18:40.172Z,0.70
2022-11-24T07:21:07.911Z,0.93
2022-11-24T07:23:35.445Z,1.08
2022-11-24T07:26:06.886Z,1.25
2022-11-24T07:28:35.224Z,1.23
2022-11-24T07:31:09.181Z,0.80
2022-11-24T07:33:36.866Z,1.35
2022-11-24T07:36:04.730Z,0.75
2022-11-24T07:38:32.414Z,1.30
2022-11-24T07:41:01.274Z,1.15
2022-11-24T07:43:29.259Z,1.23
2022-11-24T07:45:56.877Z,0.80
2022-11-24T07:48:24.503Z,1.10
2022-11-24T07:50:55.742Z,0.90
2022-11-24T07:53:23.969Z,0.53
2022-11-24T07:55:55.747Z,1.80
2022-11-24T07:58:25.497Z,0.52
2022-11-24T08:00:55.244Z,1.50
2022-11-24T08:03:22.832Z,1.10
2022-11-24T08:06:22.789Z,1.42
2022-11-24T08:08:47.476Z,1.27
2022-11-24T08:11:16.842Z,1.20
2022-11-24T08:13:44.385Z,1.17
2022-11-24T08:16:13.002Z,1.23
2022-11-24T08:18:40.720Z,1.13
2022-11-24T08:21:08.889Z,1.60
2022-11-24T08:23:36.466Z,1.25
2022-11-24T08:26:08.984Z,1.73
2022-11-24T08:28:36.703Z,1.63
2022-11-24T08:31:07.757Z,1.70
2022-11-24T08:33:35.314Z,1.00
2022-11-24T08:36:07.039Z,1.30
2022-11-24T08:38:34.698Z,0.60
2022-11-24T08:41:02.974Z,1.42
2022-11-24T08:43:30.532Z,2.03
2022-11-24T08:46:01.693Z,1.73
2022-11-24T08:48:29.409Z,1.20
2022-11-24T08:50:57.389Z,1.63
2022-11-24T08:53:25.106Z,1.77
2022-11-24T08:55:52.703Z,2.17
2022-11-24T08:58:20.276Z,1.30
2022-11-24T09:00:47.810Z,2.33
2022-11-24T09:03:15.352Z,1.10
2022-11-24T09:05:51.676Z,1.58
2022-11-24T09:08:20.768Z,1.73
2022-11-24T09:10:48.303Z,1.88
2022-11-24T09:13:15.840Z,1.50
2022-11-24T09:15:43.399Z,1.10
2022-11-24T09:18:10.996Z,1.37
2022-11-24T09:20:38.583Z,2.13
2022-11-24T09:23:06.183Z,1.80
2022-11-24T09:25:36.803Z,1.43
2022-11-24T09:28:04.492Z,1.52
2022-11-24T09:30:32.127Z,1.75
2022-11-24T09:32:59.739Z,2.00
2022-11-24T09:35:27.286Z,1.77
2022-11-24T09:37:54.869Z,1.13
2022-11-24T09:40:22.405Z,1.50
2022-11-24T09:43:00.702Z,1.50
2022-11-24T09:45:57.554Z,1.20
2022-11-24T09:48:24.909Z,1.63
2022-11-24T09:50:52.613Z,1.40
2022-11-24T09:53:23.153Z,1.65
2022-11-24T09:55:51.263Z,1.17
2022-11-24T09:58:37.543Z,2.40
2022-11-24T10:01:09.336Z,1.92
2022-11-24T10:03:46.238Z,1.30
2022-11-24T10:06:31.188Z,1.23
2022-11-24T10:09:16.068Z,1.20
2022-11-24T10:11:48.035Z,1.60
2022-11-24T10:14:34.000Z,1.50
2022-11-24T10:17:08.844Z,0.90
2022-11-24T10:19:41.296Z,1.50
2022-11-24T10:22:18.208Z,1.00
2022-11-24T10:24:45.690Z,0.90
2022-11-24T10:27:19.713Z,1.20
2022-11-24T10:29:50.214Z,1.05
2022-11-24T10:32:22.343Z,1.27
2022-11-24T10:34:52.811Z,0.90
2022-11-24T10:37:20.452Z,1.20
2022-11-24T10:40:01.439Z,1.05
2022-11-24T10:42:29.963Z,0.77
2022-11-24T10:45:07.436Z,0.77
2022-11-24T10:47:34.970Z,1.33
2022-11-24T10:50:06.978Z,0.93
2022-11-24T10:52:48.731Z,0.95
2022-11-24T10:55:16.351Z,1.20
2022-11-24T10:57:45.272Z,1.17
2022-11-24T11:00:22.115Z,1.07
2022-11-24T11:02:49.989Z,1.27
2022-11-24T11:05:32.632Z,0.88
2022-11-24T11:08:15.484Z,1.00
2022-11-24T11:10:43.682Z,0.60
2022-11-24T11:13:24.522Z,1.00
2022-11-24T11:15:52.177Z,1.00
2022-11-24T11:18:19.977Z,1.15
2022-11-24T11:20:54.663Z,0.93
2022-11-24T11:23:30.018Z,0.73
2022-11-24T11:26:16.242Z,1.27
2022-11-24T11:28:43.724Z,0.90
2022-11-24T11:31:20.929Z,0.90
2022-11-24T11:34:05.469Z,1.50
2022-11-24T11:36:35.964Z,1.50
2022-11-24T11:39:04.807Z,0.90
2022-11-24T11:41:37.593Z,0.93
2022-11-24T11:44:14.305Z,1.17
2022-11-24T11:46:42.023Z,1.00
2022-11-24T11:49:10.421Z,0.80
2022-11-24T11:51:40.403Z,1.10
2022-11-24T11:54:17.036Z,0.95
2022-11-24T11:56:45.337Z,1.13
2022-11-24T11:59:13.023Z,0.90
2022-11-24T12:01:40.621Z,1.30
2022-11-24T12:04:26.755Z,2.13
2022-11-24T12:06:57.472Z,1.45
2022-11-24T12:09:43.837Z,1.25
2022-11-24T12:12:21.751Z,1.10
2022-11-24T12:15:05.876Z,1.08
2022-11-24T12:17:58.867Z,1.13
2022-11-24T12:20:38.492Z,1.40
2022-11-24T12:23:06.723Z,1.05
2022-11-24T12:25:39.170Z,1.10
2022-11-24T12:28:12.942Z,1.27
2022-11-24T12:30:58.797Z,1.15
2022-11-24T12:33:26.452Z,1.02
2022-11-24T12:35:54.797Z,1.02
2022-11-24T12:38:29.032Z,1.10
2022-11-24T12:41:39.242Z,1.08
2022-11-24T12:43:53.493Z,0.93
2022-11-24T12:46:28.205Z,1.02
2022-11-24T12:49:01.744Z,0.90
2022-11-24T12:51:39.331Z,1.30
2022-11-24T12:54:10.832Z,1.00
2022-11-24T12:56:43.447Z,1.17
2022-11-24T12:59:20.266Z,1.17
2022-11-24T13:01:53.123Z,1.52
2022-11-24T13:04:43.554Z,1.63
2022-11-24T13:07:12.178Z,1.17
2022-11-24T13:09:41.622Z,1.17
2022-11-24T13:12:15.417Z,1.08
2022-11-24T13:14:43.912Z,0.80
2022-11-24T13:17:42.142Z,1.10
2022-11-24T13:20:21.711Z,1.45
2022-11-24T13:22:55.209Z,0.80
2022-11-24T13:25:23.754Z,0.90
2022-11-24T13:27:55.562Z,1.15
2022-11-24T13:30:32.170Z,1.63
2022-11-24T13:33:03.378Z,1.02
2022-11-24T13:35:31.079Z,0.90
2022-11-24T13:37:59.026Z,0.90
2022-11-24T13:40:32.452Z,0.90
2022-11-24T13:43:03.103Z,1.17
2022-11-24T13:45:40.316Z,1.27
2022-11-24T13:48:20.681Z,0.68
2022-11-24T13:50:54.921Z,0.70
2022-11-24T13:53:22.552Z,0.80
2022-11-24T13:56:08.492Z,1.10
2022-11-24T13:58:36.148Z,0.82
2022-11-24T14:01:12.647Z,0.90
2022-11-24T14:03:40.180Z,0.60
2022-11-24T14:06:07.761Z,0.70
2022-11-24T14:08:37.029Z,0.73
2022-11-24T14:11:04.731Z,0.80
2022-11-24T14:13:33.183Z,1.58
2022-11-24T14:16:07.875Z,1.00
2022-11-24T14:18:36.064Z,1.00
2022-11-24T14:21:24.257Z,1.50
2022-11-24T14:23:56.092Z,1.08
2022-11-24T14:26:26.844Z,1.17
2022-11-24T14:28:54.380Z,0.75
2022-11-24T14:31:23.367Z,0.98
2022-11-24T14:33:51.236Z,1.27
2022-11-24T14:36:18.931Z,0.63
2022-11-24T14:38:46.568Z,0.93
2022-11-24T14:41:26.141Z,1.17
2022-11-24T14:44:11.855Z,1.17
2022-11-24T14:46:39.488Z,0.70
2022-11-24T14:49:07.184Z,1.35
2022-11-24T14:51:35.385Z,1.10
2022-11-24T14:54:03.556Z,0.93
2022-11-24T14:56:35.825Z,0.77
2022-11-24T14:59:03.623Z,1.27
2022-11-24T15:01:32.994Z,1.42
2022-11-24T15:04:17.876Z,1.05
2022-11-24T15:07:12.996Z,1.10
2022-11-24T15:09:43.435Z,1.35
2022-11-24T15:12:17.019Z,1.45
2022-11-24T15:14:51.373Z,1.92
2022-11-24T15:17:19.642Z,1.40
2022-11-24T15:19:48.135Z,1.67
2022-11-24T15:22:28.288Z,1.25
2022-11-24T15:24:55.910Z,0.90
2022-11-24T15:27:23.498Z,1.40
2022-11-24T15:29:51.071Z,0.90
2022-11-24T15:32:18.684Z,1.43
2022-11-24T15:34:46.185Z,1.13
2022-11-24T15:37:13.932Z,1.20
2022-11-24T15:39:41.465Z,1.00
2022-11-24T15:42:09.652Z,1.20
2022-11-24T15:44:37.500Z,1.08
2022-11-24T15:47:05.448Z,1.27
2022-11-24T15:49:33.010Z,1.07
2022-11-24T15:52:00.606Z,1.45
2022-11-24T15:54:29.633Z,1.25
2022-11-24T15:56:57.282Z,1.63
2022-11-24T15:59:24.914Z,0.85
2022-11-24T16:01:52.639Z,1.48
2022-11-24T16:04:20.299Z,1.50
2022-11-24T16:06:48.101Z,1.67
2022-11-24T16:09:16.303Z,1.77
2022-11-24T16:11:43.876Z,1.77
2022-11-24T16:14:11.691Z,1.50
2022-11-24T16:16:40.799Z,0.90
2022-11-24T16:19:09.762Z,0.93
2022-11-24T16:21:37.285Z,2.07
2022-11-24T16:24:05.001Z,0.98
2022-11-24T16:26:32.519Z,1.05
2022-11-24T16:29:00.151Z,1.05
2022-11-24T16:31:27.863Z,1.37
2022-11-24T16:33:55.409Z,1.33
2022-11-24T16:36:22.971Z,1.10
2022-11-24T16:38:50.474Z,1.27
2022-11-24T16:41:18.102Z,1.33
2022-11-24T16:43:46.307Z,1.23
2022-11-24T16:46:17.020Z,1.03
2022-11-24T16:48:45.179Z,1.20
2022-11-24T16:51:13.007Z,1.00
2022-11-24T16:53:40.883Z,1.00
2022-11-24T16:56:08.554Z,0.83
2022-11-24T16:58:39.393Z,1.95
2022-11-24T17:01:07.837Z,1.42
2022-11-24T17:03:37.511Z,0.90
2022-11-24T17:06:05.902Z,1.25
2022-11-24T17:08:35.960Z,0.75
2022-11-24T17:11:09.953Z,1.17
2022-11-24T17:13:40.617Z,1.40
2022-11-24T17:16:09.181Z,2.17
2022-11-24T17:18:36.742Z,1.42
2022-11-24T17:21:09.167Z,2.17
2022-11-24T17:23:37.238Z,1.52
2022-11-24T17:26:06.021Z,1.42
2022-11-24T17:28:33.604Z,1.37
2022-11-24T17:31:06.401Z,1.98
2022-11-24T17:33:34.135Z,1.88
2022-11-24T17:36:02.480Z,1.60
2022-11-24T17:38:33.275Z,2.05
2022-11-24T17:41:00.813Z,1.40
2022-11-24T17:43:28.507Z,1.58
2022-11-24T17:45:56.627Z,1.23
2022-11-24T17:48:24.275Z,1.95
2022-11-24T17:51:04.988Z,1.83
2022-11-24T17:53:32.618Z,2.50
2022-11-24T17:56:00.857Z,1.55
2022-11-24T17:58:28.880Z,2.03
2022-11-24T18:00:56.631Z,1.50
2022-11-24T18:03:25.624Z,1.70
2022-11-24T18:05:53.204Z,1.50
2022-11-24T18:08:20.699Z,2.33
2022-11-24T18:10:48.284Z,1.80
2022-11-24T18:13:34.284Z,2.33
2022-11-24T18:16:03.880Z,2.10
2022-11-24T18:18:36.576Z,2.20
2022-11-24T18:21:07.786Z,1.90
2022-11-24T18:23:36.137Z,2.05
2022-11-24T18:26:05.191Z,1.70
2022-11-24T18:28:32.955Z,1.90
2022-11-24T18:31:03.935Z,2.60
2022-11-24T18:33:38.099Z,2.30
2022-11-24T18:36:07.010Z,1.43
2022-11-24T18:38:39.470Z,1.40
2022-11-24T18:41:07.248Z,1.80
2022-11-24T18:43:35.702Z,1.10
2022-11-24T18:46:06.265Z,1.50
2022-11-24T18:48:33.779Z,1.50
2022-11-24T18:51:01.345Z,1.60
2022-11-24T18:53:29.408Z,1.83
2022-11-24T18:55:59.808Z,1.60
2022-11-24T18:58:28.854Z,1.60
2022-11-24T19:00:56.890Z,1.03
2022-11-24T19:03:24.551Z,1.77
2022-11-24T19:05:52.028Z,1.55
2022-11-24T19:08:19.598Z,2.10
2022-11-24T19:10:49.343Z,1.75
2022-11-24T19:13:17.154Z,1.48
2022-11-24T19:15:44.657Z,1.20
2022-11-24T19:18:13.080Z,1.73
2022-11-24T19:20:40.641Z,1.70
2022-11-24T19:23:08.321Z,1.00
2022-11-24T19:25:35.857Z,1.63
2022-11-24T19:28:03.719Z,2.30
2022-11-24T19:30:31.380Z,1.25
2022-11-24T19:32:58.952Z,1.57
2022-11-24T19:35:26.619Z,1.75
2022-11-24T19:37:57.247Z,1.08
2022-11-24T19:40:26.043Z,1.73
2022-11-24T19:42:53.816Z,1.63
2022-11-24T19:45:24.483Z,1.35
2022-11-24T19:47:52.092Z,1.77
2022-11-24T19:50:19.729Z,2.23
2022-11-24T19:52:47.984Z,1.60
2022-11-24T19:55:15.592Z,1.67
2022-11-24T19:57:43.146Z,1.80
2022-11-24T20:00:10.891Z,1.70
2022-11-24T20:02:38.557Z,2.05
2022-11-24T20:05:06.300Z,1.70
2022-11-24T20:07:33.941Z,1.13
2022-11-24T20:10:07.329Z,1.70
2022-11-24T20:12:36.274Z,0.90
2022-11-24T20:15:04.037Z,1.60
2022-11-24T20:17:32.813Z,1.23
2022-11-24T20:20:00.353Z,1.33
2022-11-24T20:22:27.970Z,1.23
2022-11-24T20:24:55.539Z,0.98
2022-11-24T20:27:23.131Z,1.35
2022-11-24T20:29:50.703Z,1.30
2022-11-24T20:32:20.327Z,1.70
2022-11-24T20:34:47.976Z,1.10
2022-11-24T20:37:15.993Z,1.85
2022-11-24T20:39:46.597Z,1.27
2022-11-24T20:42:14.392Z,1.90
2022-11-24T20:44:42.007Z,1.52
2022-11-24T20:47:09.865Z,1.77
2022-11-24T20:49:40.575Z,0.68
2022-11-24T20:52:08.109Z,1.67
2022-11-24T20:54:36.005Z,1.60
2022-11-24T20:57:03.815Z,1.38
2022-11-24T20:59:31.491Z,1.42
2022-11-24T21:01:59.340Z,1.33
2022-11-24T21:04:27.420Z,1.40
2022-11-24T21:06:55.039Z,1.33
2022-11-24T21:09:22.600Z,1.80
2022-11-24T21:11:50.569Z,0.83
2022-11-24T21:14:18.192Z,1.75
2022-11-24T21:16:45.932Z,1.50
2022-11-24T21:19:14.819Z,1.67
2022-11-24T21:21:43.359Z,2.20
2022-11-24T21:24:14.599Z,1.42
2022-11-24T21:26:42.452Z,1.45
2022-11-24T21:29:12.197Z,1.90
2022-11-24T21:31:39.922Z,1.23
2022-11-24T21:34:07.826Z,2.15
2022-11-24T21:36:35.566Z,1.47
2022-11-24T21:39:03.191Z,1.42
2022-11-24T21:41:32.356Z,1.40
2022-11-24T21:43:59.915Z,1.17
2022-11-24T21:46:28.058Z,1.30
2022-11-24T21:48:55.595Z,1.70
2022-11-24T21:51:23.158Z,1.90
2022-11-24T21:53:50.786Z,1.70
2022-11-24T21:56:19.232Z,1.40
2022-11-24T21:58:47.656Z,1.15
2022-11-24T22:01:15.459Z,2.43
2022-11-24T22:03:43.220Z,1.10
2022-11-24T22:06:10.752Z,1.40
2022-11-24T22:08:38.322Z,1.47
2022-11-24T22:11:12.617Z,0.98
2022-11-24T22:13:40.443Z,2.13
2022-11-24T22:16:12.359Z,0.80
2022-11-24T22:18:40.819Z,1.00
2022-11-24T22:21:08.778Z,1.67
2022-11-24T22:23:36.568Z,1.55
2022-11-24T22:26:04.938Z,1.60
2022-11-24T22:28:33.279Z,1.35
2022-11-24T22:31:04.304Z,1.88
2022-11-24T22:33:31.879Z,1.70
2022-11-24T22:35:59.750Z,1.33
2022-11-24T22:38:27.442Z,1.00
2022-11-24T22:40:56.551Z,1.02
2022-11-24T22:43:24.089Z,1.57
2022-11-24T22:45:51.639Z,0.95
2022-11-24T22:48:19.254Z,1.00
2022-11-24T22:50:46.775Z,0.80
2022-11-24T22:53:14.362Z,1.10
2022-11-24T22:55:41.906Z,0.90
2022-11-24T22:58:09.491Z,0.67
2022-11-24T23:00:37.016Z,1.23
2022-11-24T23:03:04.604Z,1.25
2022-11-24T23:05:33.392Z,1.55
2022-11-24T23:08:01.054Z,0.60
2022-11-24T23:10:28.591Z,1.55
2022-11-24T23:12:56.314Z,1.00
2022-11-24T23:15:23.892Z,1.20
2022-11-24T23:17:51.461Z,0.57
2022-11-24T23:20:19.008Z,1.08
2022-11-24T23:22:46.560Z,1.00
2022-11-24T23:25:14.059Z,0.95
2022-11-24T23:27:41.616Z,0.70
2022-11-24T23:30:09.315Z,1.08
2022-11-24T23:32:36.823Z,1.27
2022-11-24T23:35:10.905Z,0.88
2022-11-24T23:38:06.612Z,0.70
2022-11-24T23:40:34.483Z,1.00
2022-11-24T23:43:02.045Z,0.77
2022-11-24T23:45:29.644Z,0.95
2022-11-24T23:47:57.203Z,1.20
2022-11-24T23:50:24.726Z,1.10
2022-11-24T23:52:52.380Z,0.73
2022-11-24T23:55:19.892Z,2.35
2022-11-24T23:57:47.436Z,1.00
